Time;durP1;ratioP1;P1;durP2;ratioP2;P2;SDS_P1;SDS_P2;PMS_P1;PMS_P2;Temp;Humidity;BMP_temperature;BMP_pressure;BME280_temperature;BME280_humidity;BME280_pressure;Samples;Min_cycle;Max_cycle;Signal;HPM_P1;HPM_P2
2022/12/03 00:01:20;;;;;;;4.78;3.55;;;;;;;4.97;82.95;103332.53;5101803;28;20487;-74
2022/12/03 00:03:45;;;;;;;6.80;3.63;;;;;;;5.01;83.33;103325.19;5101597;28;20035;-72
2022/12/03 00:06:11;;;;;;;4.88;3.65;;;;;;;4.89;83.79;103324.16;5100929;28;20061;-72
2022/12/03 00:08:36;;;;;;;5.63;3.67;;;;;;;5.04;82.85;103307.16;5101343;28;20049;-72
2022/12/03 00:11:02;;;;;;;7.60;3.90;;;;;;;5.19;82.89;103323.94;5100609;28;20027;-72
2022/12/03 00:13:29;;;;;;;6.75;3.60;;;;;;;4.90;82.75;103294.72;5115318;28;20584;-72
2022/12/03 00:15:55;;;;;;;4.47;3.45;;;;;;;5.05;83.01;103319.53;5105254;28;20027;-73
2022/12/03 00:18:20;;;;;;;4.38;3.50;;;;;;;4.95;83.17;103321.94;5091795;28;20104;-72
2022/12/03 00:20:46;;;;;;;6.13;3.60;;;;;;;4.97;82.44;103321.88;5112208;28;20103;-73
2022/12/03 00:23:11;;;;;;;5.80;3.60;;;;;;;5.00;83.11;103315.44;5102271;28;20032;-72
2022/12/03 00:25:36;;;;;;;5.88;3.78;;;;;;;5.07;82.69;103316.78;5114611;28;20036;-73
2022/12/03 00:28:02;;;;;;;7.47;3.65;;;;;;;4.96;81.88;103312.13;5105052;28;20122;-73
2022/12/03 00:30:27;;;;;;;5.90;3.78;;;;;;;4.76;81.92;103302.75;5107325;28;20039;-73
2022/12/03 00:32:52;;;;;;;5.38;3.58;;;;;;;4.90;82.16;103312.53;5113640;28;20051;-73
2022/12/03 00:35:18;;;;;;;5.95;3.72;;;;;;;4.98;81.54;103317.38;5101142;28;20042;-72
2022/12/03 00:37:43;;;;;;;4.95;3.25;;;;;;;4.80;81.41;103319.41;5117977;28;20085;-74
2022/12/03 00:40:10;;;;;;;5.43;3.20;;;;;;;4.76;80.62;103320.56;5092490;28;20064;-72
2022/12/03 00:42:35;;;;;;;6.38;3.70;;;;;;;4.77;80.41;103316.94;5110281;28;20558;-73
2022/12/03 00:45:01;;;;;;;5.38;3.17;;;;;;;4.54;80.91;103281.97;5102759;28;20035;-72
2022/12/03 00:47:26;;;;;;;5.97;3.45;;;;;;;4.58;80.85;103287.97;5097393;28;20054;-73
2022/12/03 00:49:51;;;;;;;5.13;3.60;;;;;;;4.60;81.37;103315.38;5104047;28;20390;-72
2022/12/03 00:52:17;;;;;;;6.25;3.75;;;;;;;4.51;80.70;103298.16;5108388;28;20126;-73
2022/12/03 00:54:42;;;;;;;6.07;3.50;;;;;;;4.31;80.70;103274.59;5110639;28;20031;-73
2022/12/03 00:57:08;;;;;;;5.70;4.00;;;;;;;4.47;80.78;103286.84;5084389;28;20035;-72
2022/12/03 00:59:33;;;;;;;5.72;4.10;;;;;;;4.65;80.95;103319.47;5114311;28;20075;-73
2022/12/03 01:01:59;;;;;;;5.63;4.03;;;;;;;4.73;79.97;103305.63;5105778;28;20073;-73
2022/12/03 01:04:24;;;;;;;7.53;4.20;;;;;;;4.71;80.60;103324.41;5108680;28;20437;-73
2022/12/03 01:06:50;;;;;;;6.13;4.07;;;;;;;4.58;80.74;103310.16;5111778;28;20088;-72
2022/12/03 01:09:15;;;;;;;6.38;4.28;;;;;;;4.76;80.85;103315.25;5102533;28;20505;-72
2022/12/03 01:11:41;;;;;;;6.60;4.38;;;;;;;4.73;81.09;103318.97;5113304;28;20057;-72
2022/12/03 01:14:13;;;;;;;6.95;4.43;;;;;;;4.61;81.11;103320.63;5107052;28;20049;-73
2022/12/03 01:16:39;;;;;;;6.90;4.60;;;;;;;4.59;81.42;103303.84;5105759;28;20074;-73
2022/12/03 01:19:05;;;;;;;7.30;4.82;;;;;;;4.64;81.72;103308.91;5114973;28;20482;-73
2022/12/03 01:21:31;;;;;;;7.88;4.40;;;;;;;4.74;81.09;103294.03;5100966;28;20102;-72
2022/12/03 01:23:57;;;;;;;6.28;4.68;;;;;;;4.62;81.29;103311.66;5093997;28;20054;-73
2022/12/03 01:26:24;;;;;;;6.90;4.80;;;;;;;4.38;82.46;103298.09;5107174;28;20035;-74
2022/12/03 01:28:49;;;;;;;8.63;4.50;;;;;;;4.24;83.86;103285.63;5105134;28;20050;-72
2022/12/03 01:33:58;;;;;;;7.03;4.35;;;;;;;4.56;83.87;103314.72;5105107;28;20464;-73
2022/12/03 01:36:24;;;;;;;8.85;5.03;;;;;;;4.38;85.07;103300.75;5108134;28;20028;-73
2022/12/03 01:38:49;;;;;;;8.05;5.20;;;;;;;4.59;84.48;103306.50;5093892;28;20039;-73
2022/12/03 01:41:21;;;;;;;7.97;4.93;;;;;;;4.64;85.27;103309.75;5102422;28;20034;-72
2022/12/03 01:43:47;;;;;;;8.15;4.72;;;;;;;4.50;86.34;103306.25;5115575;28;20099;-72
2022/12/03 01:46:17;;;;;;;6.93;5.15;;;;;;;4.58;85.69;103306.63;5109448;28;20494;-72
2022/12/03 01:48:44;;;;;;;7.93;5.35;;;;;;;4.31;88.74;103302.09;5109728;28;20095;-73
2022/12/03 01:51:09;;;;;;;8.52;6.10;;;;;;;4.29;89.76;103311.13;5118670;28;20032;-73
2022/12/03 01:53:35;;;;;;;11.02;6.85;;;;;;;4.34;88.65;103299.25;5118604;28;20051;-73
2022/12/03 01:56:01;;;;;;;8.82;5.80;;;;;;;4.56;88.43;103313.84;5108193;28;20448;-72
2022/12/03 01:58:28;;;;;;;10.48;6.55;;;;;;;4.24;89.75;103312.28;5111683;28;20040;-73
2022/12/03 02:00:56;;;;;;;8.75;6.03;;;;;;;4.27;89.62;103305.03;5117191;28;20457;-73
2022/12/03 02:03:24;;;;;;;9.13;6.95;;;;;;;4.35;89.11;103292.94;5105597;28;20032;-73
2022/12/03 02:05:50;;;;;;;11.68;5.95;;;;;;;4.32;89.52;103305.63;5115966;28;20055;-74
2022/12/03 02:08:29;;;;;;;12.00;7.15;;;;;;;4.26;89.75;103298.00;5109903;28;20023;-73
2022/12/03 02:10:57;;;;;;;10.77;7.22;;;;;;;4.37;89.03;103298.16;5105992;28;20039;-73
2022/12/03 02:13:23;;;;;;;12.93;7.38;;;;;;;4.21;89.38;103292.97;5117271;28;20027;-73
2022/12/03 02:15:48;;;;;;;13.32;7.60;;;;;;;4.51;88.83;103292.84;5106370;28;20027;-73
2022/12/03 02:18:14;;;;;;;12.77;7.57;;;;;;;4.34;88.57;103280.59;5094456;28;20036;-73
2022/12/03 02:21:01;;;;;;;9.80;7.30;;;;;;;4.45;88.56;103296.75;5083605;28;20036;-73
2022/12/03 02:23:45;;;;;;;13.88;8.25;;;;;;;4.51;87.84;103290.16;5116577;28;20443;-73
2022/12/03 02:26:10;;;;;;;11.10;7.32;;;;;;;4.58;87.50;103294.16;5107975;28;20164;-73
2022/12/03 02:28:37;;;;;;;14.10;7.50;;;;;;;4.24;88.51;103280.31;5091635;28;20055;-73
2022/12/03 02:31:04;;;;;;;11.27;7.00;;;;;;;4.33;88.16;103297.50;5116909;28;20055;-73
2022/12/03 02:33:30;;;;;;;13.45;8.15;;;;;;;4.42;88.01;103291.59;5104057;28;20041;-73
2022/12/03 02:35:55;;;;;;;12.32;7.95;;;;;;;4.51;87.12;103290.16;5113963;28;20498;-73
2022/12/03 02:38:29;;;;;;;13.13;7.85;;;;;;;4.69;86.45;103296.97;5109805;28;20118;-73
2022/12/03 02:42:33;;;;;;;12.18;8.40;;;;;;;4.59;85.89;103279.00;5106259;28;20054;-73
2022/12/03 02:44:05;;;;;;;11.82;7.82;;;;;;;4.40;86.17;103266.88;5085197;28;20036;-74
2022/12/03 02:46:30;;;;;;;12.20;8.20;;;;;;;4.56;86.27;103296.03;5098298;28;20155;-73
2022/12/03 02:48:56;;;;;;;13.73;8.50;;;;;;;4.53;86.79;103295.38;5078030;28;20040;-73
2022/12/03 02:51:22;;;;;;;12.60;8.15;;;;;;;4.50;86.30;103296.44;5095507;28;20095;-73
2022/12/03 02:53:50;;;;;;;13.18;8.38;;;;;;;4.50;86.20;103292.91;5080736;28;20097;-73
2022/12/03 02:56:19;;;;;;;13.43;8.50;;;;;;;4.40;87.18;103293.53;5078357;28;20024;-73
2022/12/03 02:58:48;;;;;;;12.00;8.15;;;;;;;4.27;87.52;103289.03;5078331;28;20590;-73
2022/12/03 03:01:15;;;;;;;11.55;8.27;;;;;;;4.58;86.87;103302.16;5095573;28;20430;-73
2022/12/03 03:03:42;;;;;;;11.48;8.32;;;;;;;4.48;86.73;103298.38;5078331;28;20029;-72
2022/12/03 03:06:08;;;;;;;13.18;8.55;;;;;;;4.58;86.75;103299.47;5086111;28;20101;-73
2022/12/03 03:08:36;;;;;;;14.68;8.93;;;;;;;4.48;86.22;103285.88;5081934;28;20127;-73
2022/12/03 03:11:02;;;;;;;13.63;8.35;;;;;;;4.43;86.27;103290.63;5098766;28;20024;-73
2022/12/03 03:13:32;;;;;;;14.80;8.73;;;;;;;4.48;86.99;103285.03;5099386;28;20122;-73
2022/12/03 03:15:58;;;;;;;13.38;8.70;;;;;;;3.98;86.74;103211.81;5106318;28;20023;-73
2022/12/03 03:18:23;;;;;;;14.50;8.80;;;;;;;4.43;86.76;103284.44;5111574;28;20111;-73
2022/12/03 03:20:49;;;;;;;14.80;9.27;;;;;;;4.41;86.96;103286.38;5096691;28;20035;-73
2022/12/03 03:23:18;;;;;;;12.38;8.43;;;;;;;4.26;87.63;103282.88;5104965;28;20040;-73
2022/12/03 03:25:48;;;;;;;12.48;8.32;;;;;;;4.34;86.98;103251.25;5117898;28;20055;-74
2022/12/03 03:28:15;;;;;;;12.65;8.77;;;;;;;4.41;86.86;103279.25;5110536;28;20024;-73
2022/12/03 03:30:42;;;;;;;12.55;8.00;;;;;;;4.45;86.83;103288.75;5110277;28;20032;-73
2022/12/03 03:33:11;;;;;;;14.18;8.63;;;;;;;4.33;87.25;103286.00;5116957;28;20039;-73
2022/12/03 03:35:37;;;;;;;12.25;8.93;;;;;;;4.39;87.43;103288.28;5103862;28;20026;-75
2022/12/03 03:38:03;;;;;;;12.05;8.18;;;;;;;4.28;87.21;103280.13;5115958;28;20087;-73
2022/12/03 03:40:29;;;;;;;12.20;8.38;;;;;;;4.16;88.20;103261.25;5109644;28;20043;-73
2022/12/03 03:42:56;;;;;;;15.77;8.35;;;;;;;3.99;88.26;103243.69;5104968;28;20028;-73
2022/12/03 03:45:22;;;;;;;12.73;8.77;;;;;;;4.04;88.65;103263.84;5121517;28;20023;-73
2022/12/03 03:47:47;;;;;;;14.00;9.25;;;;;;;4.09;88.68;103259.09;5113626;28;20030;-73
2022/12/03 03:50:14;;;;;;;14.57;9.13;;;;;;;4.23;87.72;103272.41;5103034;28;20047;-73
2022/12/03 03:52:40;;;;;;;13.15;9.05;;;;;;;3.91;88.41;103223.81;5112059;28;20397;-73
2022/12/03 03:55:06;;;;;;;13.45;9.30;;;;;;;3.93;88.45;103244.06;5104903;28;20475;-73
2022/12/03 03:57:32;;;;;;;13.48;8.98;;;;;;;3.99;88.90;103269.47;5116889;28;20038;-73
2022/12/03 03:59:58;;;;;;;13.20;8.88;;;;;;;4.03;88.48;103251.47;5104738;28;20044;-73
2022/12/03 04:02:26;;;;;;;14.25;9.45;;;;;;;4.09;88.67;103270.59;5110137;28;20024;-73
2022/12/03 04:04:53;;;;;;;12.25;8.43;;;;;;;4.14;88.06;103255.19;5112027;28;20742;-73
2022/12/03 04:07:18;;;;;;;12.82;8.13;;;;;;;4.11;87.93;103257.19;5101654;28;20032;-73
2022/12/03 04:09:44;;;;;;;13.60;8.55;;;;;;;3.95;88.34;103228.00;5116801;28;20085;-73
2022/12/03 04:14:57;;;;;;;12.68;8.30;;;;;;;3.94;88.53;103258.22;5106451;28;20039;-73
2022/12/03 04:17:23;;;;;;;12.45;8.73;;;;;;;3.85;89.08;103258.81;5116574;28;20401;-73
2022/12/03 04:19:48;;;;;;;12.63;8.27;;;;;;;3.97;89.05;103266.03;5102312;28;20035;-73
2022/12/03 04:30:45;;;;;;;13.60;8.55;;;;;;;4.11;88.41;103247.41;5098790;28;20516;-73
2022/12/03 04:35:54;;;;;;;13.23;9.25;;;;;;;4.06;88.07;103253.97;5089840;28;20055;-73
2022/12/03 04:38:23;;;;;;;11.90;8.48;;;;;;;4.09;87.92;103251.94;5108750;28;20044;-73
2022/12/03 04:41:00;;;;;;;12.10;9.10;;;;;;;4.09;87.87;103251.09;5112005;28;20028;-73
2022/12/03 04:43:31;;;;;;;15.27;9.57;;;;;;;4.01;88.30;103246.25;5085599;28;20056;-73
2022/12/03 04:45:56;;;;;;;13.57;9.02;;;;;;;4.01;87.75;103232.94;5114082;28;20086;-73
2022/12/03 04:48:22;;;;;;;12.90;9.13;;;;;;;3.98;88.65;103244.63;5107099;28;20036;-73
2022/12/03 04:50:47;;;;;;;14.82;9.48;;;;;;;4.09;87.94;103249.28;5106232;28;20032;-73
2022/12/03 04:53:13;;;;;;;14.07;8.98;;;;;;;3.79;88.57;103240.56;5115748;28;20034;-73
2022/12/03 04:55:38;;;;;;;13.20;9.60;;;;;;;3.75;89.44;103235.41;5101212;28;20031;-73
2022/12/03 04:58:03;;;;;;;16.67;9.40;;;;;;;3.63;90.25;103236.16;5111860;28;20040;-73
2022/12/03 05:00:29;;;;;;;13.77;9.15;;;;;;;3.69;89.65;103237.59;5091385;28;20046;-73
2022/12/03 05:02:54;;;;;;;14.55;9.93;;;;;;;3.58;90.99;103238.25;5105402;28;20020;-73
2022/12/03 05:05:19;;;;;;;14.52;9.73;;;;;;;3.59;91.07;103236.47;5115507;28;20027;-73
2022/12/03 05:07:45;;;;;;;13.23;9.48;;;;;;;3.45;91.68;103232.81;5103016;28;20030;-73
2022/12/03 05:10:11;;;;;;;14.20;10.02;;;;;;;3.38;90.90;103198.66;5110492;28;20063;-73
2022/12/03 05:12:56;;;;;;;14.15;9.98;;;;;;;3.58;90.11;103229.44;5112973;28;20030;-73
2022/12/03 05:15:22;;;;;;;14.68;9.43;;;;;;;3.38;90.57;103196.91;5083913;28;20044;-74
2022/12/03 05:17:47;;;;;;;14.10;9.82;;;;;;;3.41;90.32;103225.09;5113389;28;20054;-73
2022/12/03 05:22:57;;;;;;;12.85;9.48;;;;;;;3.39;90.86;103217.22;5105624;28;20073;-73
2022/12/03 05:25:23;;;;;;;14.00;10.05;;;;;;;3.29;90.94;103219.59;5115943;28;20039;-74
2022/12/03 05:27:48;;;;;;;15.25;10.18;;;;;;;3.36;91.06;103227.19;5101893;28;20038;-73
2022/12/03 05:30:14;;;;;;;14.77;9.85;;;;;;;3.30;90.76;103215.97;5111961;28;20055;-73
2022/12/03 05:32:39;;;;;;;14.23;10.00;;;;;;;3.13;91.45;103197.50;5110705;28;20034;-73
2022/12/03 05:35:05;;;;;;;15.52;10.30;;;;;;;2.91;91.47;103173.97;5069818;28;20024;-73
2022/12/03 05:37:30;;;;;;;15.27;10.45;;;;;;;3.12;91.61;103208.25;5116257;28;20027;-73
2022/12/03 05:39:56;;;;;;;14.48;10.30;;;;;;;2.98;91.26;103206.38;5070888;28;20036;-73
2022/12/03 05:45:39;;;;;;;16.92;10.57;;;;;;;2.99;90.65;103192.16;5081926;28;20082;-73
2022/12/03 05:48:08;;;;;;;16.70;10.38;;;;;;;3.18;90.20;103206.06;5104830;28;20039;-73
2022/12/03 05:50:35;;;;;;;15.60;10.88;;;;;;;2.98;90.66;103201.94;5109621;28;20107;-73
2022/12/03 05:53:01;;;;;;;14.75;10.68;;;;;;;2.91;91.50;103205.03;5112828;28;20036;-73
2022/12/03 05:55:27;;;;;;;14.77;10.52;;;;;;;2.93;91.10;103203.16;5101677;28;20140;-73
2022/12/03 05:57:53;;;;;;;15.95;10.70;;;;;;;2.90;91.67;103208.66;5114168;28;20483;-73
2022/12/03 06:00:30;;;;;;;14.70;9.68;;;;;;;2.84;91.07;103199.22;5106421;28;20047;-73
2022/12/03 06:02:56;;;;;;;17.65;10.93;;;;;;;2.96;91.19;103205.63;5105423;28;20051;-73
2022/12/03 06:05:22;;;;;;;13.85;10.40;;;;;;;2.67;90.78;103170.97;5115723;28;20035;-73
2022/12/03 06:07:49;;;;;;;13.82;10.13;;;;;;;2.94;90.83;103200.38;5103299;28;20047;-73
2022/12/03 06:10:23;;;;;;;17.10;9.82;;;;;;;2.32;91.18;103106.59;5094421;28;20036;-73
2022/12/03 06:12:48;;;;;;;14.50;9.48;;;;;;;2.55;91.29;103153.94;5111331;28;20024;-73
2022/12/03 06:15:16;;;;;;;13.73;9.25;;;;;;;2.91;90.69;103194.41;5086768;28;20048;-72
2022/12/03 06:17:42;;;;;;;13.93;9.40;;;;;;;2.89;90.62;103197.16;5117440;28;20093;-73
2022/12/03 06:20:12;;;;;;;15.02;10.15;;;;;;;2.94;90.46;103194.22;5088036;28;20039;-73
2022/12/03 06:22:37;;;;;;;13.38;9.48;;;;;;;2.46;90.76;103150.97;5107351;28;20032;-73
2022/12/03 06:25:03;;;;;;;14.95;9.55;;;;;;;2.40;90.81;103140.69;5112619;28;20035;-73
2022/12/03 06:27:28;;;;;;;15.55;10.07;;;;;;;2.32;91.19;103138.47;5084771;28;20410;-73
2022/12/03 06:29:54;;;;;;;12.77;9.10;;;;;;;2.60;90.78;103172.28;5116064;28;20056;-73
2022/12/03 06:32:19;;;;;;;14.00;9.10;;;;;;;2.71;90.59;103182.28;5110188;28;20028;-73
2022/12/03 06:34:44;;;;;;;14.20;9.55;;;;;;;2.59;91.04;103190.03;5111466;28;20040;-73
2022/12/03 06:37:10;;;;;;;11.02;8.23;;;;;;;2.70;90.48;103193.84;5107866;28;20035;-71
2022/12/03 06:39:35;;;;;;;12.45;9.15;;;;;;;2.54;90.63;103191.22;5108926;28;20036;-73
2022/12/03 06:42:01;;;;;;;14.20;9.23;;;;;;;2.46;90.58;103196.97;5103086;28;20031;-74
2022/12/03 06:44:26;;;;;;;11.95;8.25;;;;;;;2.48;90.76;103192.41;5103577;28;20032;-74
2022/12/03 06:46:52;;;;;;;15.38;9.75;;;;;;;2.31;91.13;103192.53;5103215;28;20069;-74
2022/12/03 06:49:17;;;;;;;12.52;8.75;;;;;;;2.07;91.82;103171.72;5118509;28;20038;-74
2022/12/03 06:51:43;;;;;;;14.48;9.57;;;;;;;2.31;91.22;103195.19;5104821;28;20058;-73
2022/12/03 06:54:09;;;;;;;13.07;7.85;;;;;;;2.46;90.19;103190.81;5115057;28;20073;-74
2022/12/03 06:56:34;;;;;;;14.48;9.48;;;;;;;2.33;90.14;103195.97;5112145;28;20031;-73
2022/12/03 06:58:59;;;;;;;13.75;9.38;;;;;;;2.28;90.54;103190.91;5106307;28;20059;-73
2022/12/03 07:01:27;;;;;;;14.88;10.13;;;;;;;2.17;90.63;103182.69;5117934;28;20032;-74
2022/12/03 07:03:52;;;;;;;13.80;9.45;;;;;;;2.20;90.21;103192.28;5106315;28;20034;-73
2022/12/03 07:06:18;;;;;;;13.35;9.07;;;;;;;2.34;89.71;103197.66;5112710;28;20438;-73
2022/12/03 07:08:43;;;;;;;16.67;9.30;;;;;;;2.47;88.90;103196.03;5113071;28;20028;-73
2022/12/03 07:11:29;;;;;;;15.18;9.38;;;;;;;2.04;89.05;103160.41;5105472;28;20038;-73
2022/12/03 07:13:54;;;;;;;15.95;9.27;;;;;;;2.28;89.52;103198.00;5091182;28;20047;-74
2022/12/03 07:16:20;;;;;;;14.65;10.07;;;;;;;2.16;90.00;103188.09;5112468;28;20085;-73
2022/12/03 07:18:45;;;;;;;13.95;9.60;;;;;;;2.16;90.30;103201.38;5094551;28;20035;-74
2022/12/03 07:21:11;;;;;;;14.93;9.63;;;;;;;2.11;89.95;103196.31;5104263;28;20046;-74
2022/12/03 07:23:36;;;;;;;13.45;9.35;;;;;;;2.20;89.24;103202.91;5116070;28;20569;-72
2022/12/03 07:26:02;;;;;;;14.23;9.52;;;;;;;2.27;89.02;103201.63;5104917;28;20059;-72
2022/12/03 07:28:27;;;;;;;17.00;9.68;;;;;;;1.98;89.87;103209.41;5109734;28;20065;-73
2022/12/03 07:30:52;;;;;;;16.77;9.70;;;;;;;2.08;90.00;103210.59;5112521;28;20061;-72
2022/12/03 07:33:18;;;;;;;16.38;10.00;;;;;;;2.02;89.95;103202.13;5102863;28;20036;-73
2022/12/03 07:35:44;;;;;;;14.35;9.13;;;;;;;2.08;89.23;103199.13;5117055;28;20039;-72
2022/12/03 07:38:10;;;;;;;15.13;10.13;;;;;;;2.18;89.08;103189.69;5089208;28;20126;-71
2022/12/03 07:40:35;;;;;;;14.57;9.77;;;;;;;2.07;88.80;103192.09;5108512;28;20101;-71
2022/12/03 07:43:00;;;;;;;14.07;9.50;;;;;;;2.06;89.00;103191.25;5091835;28;20043;-69
2022/12/03 07:45:26;;;;;;;15.10;9.35;;;;;;;2.05;89.95;103191.31;5101453;28;20085;-72
2022/12/03 07:47:51;;;;;;;14.20;9.65;;;;;;;1.98;89.68;103197.91;5106701;28;20063;-71
2022/12/03 07:50:16;;;;;;;15.20;9.70;;;;;;;1.86;89.28;103157.84;5072037;28;20031;-72
2022/12/03 07:52:42;;;;;;;13.25;9.02;;;;;;;2.07;88.89;103192.09;5090709;28;20415;-71
2022/12/03 07:55:09;;;;;;;12.82;8.93;;;;;;;1.90;89.37;103178.91;5096183;28;20059;-73
2022/12/03 07:57:34;;;;;;;15.45;8.77;;;;;;;2.06;88.90;103185.09;5101914;28;20038;-70
2022/12/03 08:00:00;;;;;;;14.27;8.13;;;;;;;2.13;88.29;103185.59;5095773;28;20044;-73
2022/12/03 08:02:25;;;;;;;14.77;9.43;;;;;;;1.87;88.32;103154.22;5107541;28;20032;-72
2022/12/03 08:04:50;;;;;;;13.20;8.77;;;;;;;2.04;88.31;103184.31;5107518;28;20059;-73
2022/12/03 08:07:16;;;;;;;13.32;8.38;;;;;;;1.96;88.33;103184.75;5089840;28;20040;-69
2022/12/03 08:09:42;;;;;;;14.60;9.00;;;;;;;2.04;87.94;103190.47;5104585;28;20481;-72
2022/12/03 08:12:15;;;;;;;13.45;8.88;;;;;;;2.16;87.75;103194.25;5114953;28;20031;-69
2022/12/03 08:14:40;;;;;;;15.60;9.13;;;;;;;2.09;87.02;103191.09;5108693;28;20386;-70
2022/12/03 08:17:11;;;;;;;15.32;9.40;;;;;;;2.10;87.29;103181.31;5102908;28;20058;-70
2022/12/03 08:19:36;;;;;;;14.23;8.90;;;;;;;2.10;87.18;103178.66;5114911;28;20031;-70
2022/12/03 08:22:12;;;;;;;13.48;8.10;;;;;;;2.12;87.11;103187.41;5104010;28;20497;-70
2022/12/03 08:24:38;;;;;;;15.30;8.45;;;;;;;2.04;86.57;103171.03;5107925;28;20031;-71
2022/12/03 08:27:13;;;;;;;13.23;8.57;;;;;;;2.17;86.66;103195.13;5096027;28;20130;-71
2022/12/03 08:29:38;;;;;;;12.27;7.80;;;;;;;2.00;85.90;103169.50;5104138;28;20032;-71
2022/12/03 08:32:05;;;;;;;12.85;8.52;;;;;;;2.11;86.08;103183.88;5114806;28;20058;-71
2022/12/03 08:34:39;;;;;;;12.38;7.90;;;;;;;1.84;86.31;103138.47;5109344;28;20122;-70
2022/12/03 08:37:15;;;;;;;15.57;8.40;;;;;;;2.08;86.07;103176.06;5104054;28;20059;-70
2022/12/03 08:39:47;;;;;;;13.52;7.78;;;;;;;1.93;86.35;103178.75;5115974;28;20035;-71
2022/12/03 08:42:40;;;;;;;15.10;8.25;;;;;;;1.96;85.61;103146.72;5106731;28;20063;-70
2022/12/03 08:45:38;;;;;;;13.52;8.05;;;;;;;2.03;85.98;103188.78;5105987;28;20038;-71
2022/12/03 08:48:28;;;;;;;13.07;7.47;;;;;;;2.06;85.92;103177.13;5084728;28;20087;-72
2022/12/03 08:50:55;;;;;;;13.82;8.23;;;;;;;2.06;85.36;103177.13;5111541;28;20394;-73
2022/12/03 08:53:31;;;;;;;13.70;7.80;;;;;;;2.18;85.43;103176.41;5103420;28;20565;-73
2022/12/03 08:56:16;;;;;;;12.48;7.30;;;;;;;2.15;85.07;103168.63;5088898;28;20053;-72
2022/12/03 08:58:43;;;;;;;12.27;7.53;;;;;;;2.16;85.05;103175.66;5108567;28;20384;-73
2022/12/03 09:01:09;;;;;;;13.07;7.07;;;;;;;2.15;83.99;103173.94;5113339;28;20035;-72
2022/12/03 09:03:36;;;;;;;10.98;6.82;;;;;;;2.17;84.42;103176.53;5102305;28;20028;-72
2022/12/03 09:06:02;;;;;;;12.15;6.95;;;;;;;2.18;84.27;103175.56;5113183;28;20028;-72
2022/12/03 09:08:27;;;;;;;11.73;6.80;;;;;;;2.22;84.26;103175.31;5108219;28;20053;-72
2022/12/03 09:10:52;;;;;;;13.00;7.25;;;;;;;2.03;84.52;103166.66;5104878;28;20518;-73
2022/12/03 09:13:18;;;;;;;11.52;6.82;;;;;;;2.08;84.54;103175.22;5097440;28;20096;-72
2022/12/03 09:15:43;;;;;;;10.18;6.60;;;;;;;1.83;84.21;103139.41;5115660;28;20089;-72
2022/12/03 09:18:09;;;;;;;14.95;6.97;;;;;;;2.17;84.00;103169.41;5103284;28;20050;-73
2022/12/03 09:20:34;;;;;;;11.70;6.85;;;;;;;2.08;83.86;103157.47;5107972;28;20032;-73
2022/12/03 09:23:00;;;;;;;11.38;7.13;;;;;;;2.13;83.57;103154.59;5111187;28;20037;-72
2022/12/03 09:25:25;;;;;;;12.05;7.45;;;;;;;2.05;83.49;103144.41;5067188;28;20047;-69
2022/12/03 09:27:50;;;;;;;10.13;6.10;;;;;;;1.98;82.84;103128.88;5116076;28;20047;-72
2022/12/03 09:30:16;;;;;;;11.25;6.85;;;;;;;2.29;82.63;103158.09;5106373;28;20032;-72
2022/12/03 09:32:41;;;;;;;10.65;6.47;;;;;;;1.93;82.75;103115.88;5124892;28;20040;-72
2022/12/03 09:35:07;;;;;;;10.35;6.15;;;;;;;2.19;81.49;103158.72;5111882;28;20112;-73
2022/12/03 09:37:33;;;;;;;11.00;6.85;;;;;;;2.17;82.59;103161.44;5102425;28;20059;-72
2022/12/03 09:39:58;;;;;;;9.30;6.15;;;;;;;2.20;81.44;103161.25;5115078;28;20028;-72
2022/12/03 09:42:24;;;;;;;14.05;7.68;;;;;;;2.34;81.58;103163.13;5090403;28;20039;-72
2022/12/03 09:44:50;;;;;;;22.08;13.20;;;;;;;2.41;79.98;103163.63;5107511;28;20020;-72
2022/12/03 09:47:16;;;;;;;10.20;6.65;;;;;;;2.29;80.51;103136.84;5114257;28;20060;-72
2022/12/03 09:49:42;;;;;;;9.93;5.82;;;;;;;2.27;79.70;103157.31;5101901;28;20122;-72
2022/12/03 09:52:10;;;;;;;19.23;6.95;;;;;;;2.32;79.39;103151.75;5112542;28;20058;-72
2022/12/03 09:54:37;;;;;;;10.20;6.03;;;;;;;2.40;79.29;103152.16;5109198;28;20028;-72
2022/12/03 09:57:03;;;;;;;17.10;9.95;;;;;;;2.48;78.64;103143.72;5105367;28;20020;-73
2022/12/03 09:59:33;;;;;;;13.90;8.02;;;;;;;2.79;78.29;103150.78;5097133;28;20118;-72
2022/12/03 10:02:00;;;;;;;11.07;6.30;;;;;;;2.50;77.82;103141.84;5102680;28;20053;-72
2022/12/03 10:04:27;;;;;;;10.15;5.85;;;;;;;2.53;77.54;103136.38;5112213;28;20195;-72
2022/12/03 10:06:53;;;;;;;12.30;6.25;;;;;;;2.77;77.08;103140.22;5114906;28;20031;-72
2022/12/03 10:09:24;;;;;;;10.57;5.97;;;;;;;2.76;77.32;103143.00;5104723;28;20402;-72
2022/12/03 10:11:50;;;;;;;8.63;5.72;;;;;;;2.27;77.65;103098.88;5087214;28;20023;-73
2022/12/03 10:14:18;;;;;;;10.07;6.35;;;;;;;2.68;77.51;103132.81;5096367;28;20241;-72
2022/12/03 10:16:44;;;;;;;11.52;6.45;;;;;;;2.54;77.33;103140.72;5094757;28;20070;-72
2022/12/03 10:19:22;;;;;;;10.40;6.10;;;;;;;2.80;76.89;103144.50;5107029;28;20498;-72
2022/12/03 10:21:48;;;;;;;8.90;5.25;;;;;;;2.45;77.34;103133.28;5119381;28;20047;-72
2022/12/03 10:24:16;;;;;;;10.25;5.90;;;;;;;2.55;77.69;103135.34;5107887;28;20027;-72
2022/12/03 10:26:43;;;;;;;8.18;5.00;;;;;;;2.61;76.97;103133.25;5110181;28;20032;-72
2022/12/03 10:29:23;;;;;;;9.77;5.25;;;;;;;2.55;77.20;103137.13;5116786;28;20079;-72
2022/12/03 10:32:01;;;;;;;8.85;5.32;;;;;;;2.58;76.18;103115.69;5104681;28;20020;-72
2022/12/03 10:34:38;;;;;;;11.90;7.00;;;;;;;2.81;75.49;103140.91;5114105;28;20028;-72
2022/12/03 10:37:15;;;;;;;9.43;5.88;;;;;;;2.69;76.59;103139.00;5115968;28;20432;-72
2022/12/03 10:39:54;;;;;;;9.23;6.13;;;;;;;2.75;75.62;103128.84;5106029;28;20098;-73
2022/12/03 10:42:20;;;;;;;12.05;5.85;;;;;;;2.78;76.22;103136.66;5113466;28;20024;-72
2022/12/03 10:44:45;;;;;;;13.32;6.15;;;;;;;2.88;75.43;103131.63;5112650;28;20036;-72
2022/12/03 10:47:13;;;;;;;9.07;5.55;;;;;;;2.68;76.42;103134.59;5106896;28;20043;-72
2022/12/03 10:49:40;;;;;;;11.07;6.07;;;;;;;2.67;76.20;103139.06;5131525;28;20073;-73
2022/12/03 10:52:12;;;;;;;62.67;16.75;;;;;;;2.65;76.35;103114.38;5119951;28;20035;-73
2022/12/03 10:54:37;;;;;;;77.63;20.55;;;;;;;2.54;76.74;103111.50;5124393;28;20047;-73
2022/12/03 10:57:03;;;;;;;50.45;20.73;;;;;;;2.65;75.84;103113.50;5108715;28;20031;-72
2022/12/03 10:59:32;;;;;;;45.80;18.38;;;;;;;2.69;76.19;103129.22;5115571;28;20052;-72
2022/12/03 11:01:58;;;;;;;19.85;10.13;;;;;;;2.47;76.22;103094.19;5126486;28;20024;-72
2022/12/03 11:04:33;;;;;;;14.40;7.65;;;;;;;2.75;75.97;103125.34;5120394;28;20047;-73
2022/12/03 11:07:01;;;;;;;22.92;12.13;;;;;;;2.73;75.79;103112.13;5118374;28;20020;-72
2022/12/03 11:09:29;;;;;;;15.70;9.57;;;;;;;2.62;75.23;103089.81;5129450;28;20051;-73
2022/12/03 11:12:01;;;;;;;17.42;10.68;;;;;;;2.89;75.19;103116.53;5115408;28;20024;-72
2022/12/03 11:14:56;;;;;;;14.15;9.07;;;;;;;2.99;73.91;103120.34;5123983;28;20028;-73
2022/12/03 11:17:44;;;;;;;24.77;15.15;;;;;;;3.14;74.19;103122.06;5128858;28;20032;-72
2022/12/03 11:20:24;;;;;;;10.25;6.35;;;;;;;3.11;74.94;103111.59;5104396;28;20035;-72
2022/12/03 11:22:53;;;;;;;9.90;6.53;;;;;;;3.02;74.69;103112.19;5123040;28;20038;-73
2022/12/03 11:25:27;;;;;;;10.32;5.90;;;;;;;2.97;74.44;103111.59;5133295;28;20023;-74
2022/12/03 11:28:11;;;;;;;10.90;5.43;;;;;;;2.90;73.75;103108.44;5103398;28;20067;-72
2022/12/03 11:31:00;;;;;;;8.98;5.80;;;;;;;3.00;73.90;103114.06;5123076;28;20039;-73
2022/12/03 11:33:29;;;;;;;10.20;6.45;;;;;;;2.99;73.38;103094.59;5129266;28;20027;-72
2022/12/03 11:36:04;;;;;;;9.90;5.82;;;;;;;3.22;73.63;103109.16;5099960;28;20092;-73
2022/12/03 11:38:45;;;;;;;10.13;6.03;;;;;;;3.16;72.44;103114.84;5122446;28;20105;-73
2022/12/03 11:41:31;;;;;;;9.10;5.88;;;;;;;3.21;71.91;103110.13;5126643;28;20114;-73
2022/12/03 11:44:28;;;;;;;11.23;5.53;;;;;;;2.99;72.35;103104.38;5097913;28;20051;-73
2022/12/03 11:46:55;;;;;;;10.93;5.72;;;;;;;3.10;72.75;103112.56;5114563;28;20074;-72
2022/12/03 11:49:29;;;;;;;9.38;5.90;;;;;;;3.34;71.71;103107.53;5110185;28;20062;-73
2022/12/03 11:51:55;;;;;;;13.27;6.70;;;;;;;3.09;72.47;103102.88;5098913;28;20405;-73
2022/12/03 11:54:22;;;;;;;10.35;5.47;;;;;;;3.22;72.74;103093.19;5122436;28;20032;-72